Time;durP1;ratioP1;P1;durP2;ratioP2;P2;SDS_P1;SDS_P2;PMS_P1;PMS_P2;Temp;Humidity;BMP_temperature;BMP_pressure;BME280_temperature;BME280_humidity;BME280_pressure;Samples;Min_cycle;Max_cycle;Signal;HPM_P1;HPM_P2
2024/04/01 00:01:28;;;;;;;11.32;6.45;;;11.90;99.90;;;;;;4990295;28;20026;-87
2024/04/01 00:03:58;;;;;;;10.07;6.95;;;11.90;99.90;;;;;;4998732;28;20022;-88
2024/04/01 00:06:31;;;;;;;10.48;6.05;;;11.90;99.90;;;;;;5000283;28;20112;-87
2024/04/01 00:08:59;;;;;;;8.77;6.03;;;11.90;99.90;;;;;;5001673;28;20030;-88
2024/04/01 00:11:34;;;;;;;11.93;6.35;;;11.90;99.90;;;;;;4983162;28;20026;-87
2024/04/01 00:14:02;;;;;;;10.52;5.85;;;11.80;99.90;;;;;;4968383;28;20481;-89
2024/04/01 00:16:31;;;;;;;8.55;6.15;;;11.80;99.90;;;;;;4965839;28;20490;-90
2024/04/01 00:18:56;;;;;;;9.55;6.05;;;11.70;99.90;;;;;;4967111;28;20041;-88
2024/04/01 00:21:31;;;;;;;11.10;6.40;;;11.70;99.90;;;;;;5019132;28;20030;-88
2024/04/01 00:23:57;;;;;;;12.90;6.82;;;11.70;99.90;;;;;;5000416;28;20493;-89
2024/04/01 00:26:25;;;;;;;10.02;6.53;;;11.70;99.90;;;;;;5000427;28;20030;-87
2024/04/01 00:28:51;;;;;;;9.85;6.32;;;11.60;99.90;;;;;;5002510;28;20022;-88
2024/04/01 00:31:17;;;;;;;11.98;6.75;;;11.60;99.90;;;;;;4974284;28;20080;-88
2024/04/01 00:33:44;;;;;;;10.90;6.35;;;11.60;99.90;;;;;;4991601;28;20014;-87
2024/04/01 00:36:18;;;;;;;9.02;6.25;;;11.50;99.90;;;;;;5007914;28;20056;-87
2024/04/01 00:38:46;;;;;;;8.77;5.95;;;11.50;99.90;;;;;;5019458;28;20041;-89
2024/04/01 00:41:12;;;;;;;10.15;6.15;;;11.50;99.90;;;;;;5027862;28;20026;-88
2024/04/01 00:43:44;;;;;;;10.40;6.20;;;11.50;99.90;;;;;;4990934;28;20374;-88
2024/04/01 00:46:13;;;;;;;9.98;6.10;;;11.50;99.90;;;;;;4995477;28;20042;-88
2024/04/01 00:48:44;;;;;;;9.68;5.57;;;11.40;99.90;;;;;;5006355;28;20496;-88
2024/04/01 00:51:14;;;;;;;10.15;6.20;;;11.40;99.90;;;;;;5003332;28;20109;-89
2024/04/01 00:54:02;;;;;;;10.70;5.88;;;11.40;99.90;;;;;;4997551;28;20479;-87
2024/04/01 00:56:38;;;;;;;7.30;5.40;;;11.40;99.90;;;;;;5017772;28;20061;-88
2024/04/01 00:59:05;;;;;;;7.57;5.07;;;11.30;99.90;;;;;;4992611;28;20462;-87
2024/04/01 01:01:34;;;;;;;8.52;5.65;;;11.30;99.90;;;;;;5010881;28;20485;-86
2024/04/01 01:04:07;;;;;;;9.13;5.00;;;11.30;99.90;;;;;;5022513;28;20075;-85
2024/04/01 01:06:36;;;;;;;7.78;4.90;;;11.30;99.90;;;;;;5041451;28;20009;-85
2024/04/01 01:09:05;;;;;;;8.88;4.82;;;11.30;99.90;;;;;;5013197;28;20085;-86
2024/04/01 01:11:41;;;;;;;7.78;5.45;;;11.30;99.90;;;;;;5021785;28;20021;-86
2024/04/01 01:14:20;;;;;;;8.40;5.15;;;11.30;99.90;;;;;;4972981;28;20038;-86
2024/04/01 01:16:56;;;;;;;10.52;5.22;;;11.30;99.90;;;;;;4975810;28;20065;-88
2024/04/01 01:19:29;;;;;;;7.90;4.97;;;11.30;99.90;;;;;;4995551;28;20018;-87
2024/04/01 01:22:05;;;;;;;7.20;4.70;;;11.30;99.90;;;;;;4979351;28;20023;-89
2024/04/01 01:24:32;;;;;;;7.38;4.65;;;11.30;99.90;;;;;;5000204;28;20033;-86
2024/04/01 01:26:59;;;;;;;8.18;4.40;;;11.30;99.90;;;;;;5002634;28;20029;-89
2024/04/01 01:29:26;;;;;;;6.30;4.03;;;11.30;99.90;;;;;;5018530;28;20469;-88
2024/04/01 01:32:12;;;;;;;9.07;4.22;;;11.30;99.90;;;;;;5003857;28;20030;-89
2024/04/01 01:34:38;;;;;;;6.18;3.75;;;11.30;99.90;;;;;;4997523;28;20549;-88
2024/04/01 01:37:04;;;;;;;8.05;3.80;;;11.30;99.90;;;;;;4995444;28;20025;-87
2024/04/01 01:39:35;;;;;;;7.43;3.97;;;11.30;99.90;;;;;;5009361;28;20038;-88
2024/04/01 01:42:04;;;;;;;4.78;3.80;;;11.20;99.90;;;;;;5018631;28;20022;-88
2024/04/01 01:44:35;;;;;;;5.70;3.75;;;11.20;99.90;;;;;;5009032;28;20044;-88
2024/04/01 01:47:06;;;;;;;8.35;4.40;;;11.20;99.90;;;;;;5037473;28;20069;-88
2024/04/01 01:49:32;;;;;;;;;;;11.20;99.90;;;;;;4984842;28;20030;-88
2024/04/01 01:52:08;;;;;;;7.97;4.03;;;11.20;99.90;;;;;;4999244;28;19945;-87
2024/04/01 01:54:34;;;;;;;5.57;4.25;;;11.20;99.90;;;;;;4970479;28;20402;-89
2024/04/01 01:56:59;;;;;;;4.65;3.40;;;11.20;99.90;;;;;;4995772;28;20137;-87
2024/04/01 01:59:25;;;;;;;6.28;3.58;;;11.20;99.90;;;;;;5009920;28;20462;-87
2024/04/01 02:02:01;;;;;;;4.38;3.42;;;11.20;99.90;;;;;;4999281;28;20062;-88
2024/04/01 02:04:32;;;;;;;4.13;3.15;;;11.10;99.90;;;;;;4983638;28;20041;-89
2024/04/01 02:06:58;;;;;;;4.68;3.38;;;11.10;99.90;;;;;;4999445;28;20038;-88
2024/04/01 02:09:29;;;;;;;4.88;3.20;;;11.20;99.90;;;;;;4999210;28;20484;-88
2024/04/01 02:12:04;;;;;;;5.63;3.35;;;11.10;99.90;;;;;;5000108;28;20137;-88
2024/04/01 02:14:36;;;;;;;5.50;3.35;;;11.10;99.90;;;;;;5029644;28;20048;-88
2024/04/01 02:17:05;;;;;;;5.97;3.17;;;11.10;99.90;;;;;;5004105;28;20096;-88
2024/04/01 02:19:52;;;;;;;4.57;2.75;;;11.00;99.90;;;;;;5002978;28;20026;-87
2024/04/01 02:22:22;;;;;;;5.45;3.10;;;11.10;99.90;;;;;;5002792;28;20041;-88
2024/04/01 02:24:55;;;;;;;4.47;3.00;;;11.10;99.90;;;;;;5008026;28;20029;-88
2024/04/01 02:27:26;;;;;;;4.90;2.85;;;11.10;99.90;;;;;;4990759;28;20177;-87
2024/04/01 02:29:52;;;;;;;4.90;2.60;;;11.10;99.90;;;;;;5006832;28;20466;-86
2024/04/01 02:32:18;;;;;;;5.20;2.75;;;11.10;99.90;;;;;;5001123;28;20032;-87
2024/04/01 02:34:49;;;;;;;6.43;3.10;;;11.10;99.90;;;;;;4986555;28;21819;-87
2024/04/01 02:37:18;;;;;;;3.55;2.72;;;11.10;99.90;;;;;;5016729;28;20033;-86
2024/04/01 02:39:43;;;;;;;4.82;2.70;;;11.10;99.90;;;;;;5057143;28;20032;-86
2024/04/01 02:42:09;;;;;;;5.25;2.90;;;11.10;99.90;;;;;;5020663;28;20035;-88
2024/04/01 02:44:38;;;;;;;6.22;2.72;;;11.10;99.90;;;;;;5024557;28;20037;-88
2024/04/01 02:47:16;;;;;;;7.82;2.80;;;11.10;99.90;;;;;;5012761;28;20105;-88
2024/04/01 02:49:53;;;;;;;5.22;2.80;;;11.10;99.90;;;;;;5008890;28;20045;-86
2024/04/01 02:52:25;;;;;;;4.80;2.78;;;11.10;99.90;;;;;;5004136;28;20187;-88
2024/04/01 02:55:16;;;;;;;3.72;2.58;;;11.10;99.90;;;;;;4998646;28;20021;-89
2024/04/01 02:57:43;;;;;;;;;;;11.10;99.90;;;;;;4999580;28;20030;-88
2024/04/01 03:00:19;;;;;;;4.85;2.33;;;11.10;99.90;;;;;;5017907;28;19902;-88
2024/04/01 03:02:50;;;;;;;6.55;2.72;;;11.00;99.90;;;;;;4999593;28;20018;-90
2024/04/01 03:05:24;;;;;;;3.75;2.50;;;11.10;99.90;;;;;;4984914;28;20121;-88
2024/04/01 03:07:53;;;;;;;4.43;2.50;;;11.00;99.90;;;;;;4966651;28;20027;-90
2024/04/01 03:10:22;;;;;;;6.25;2.60;;;11.00;99.90;;;;;;4985985;28;20074;-88
2024/04/01 03:12:54;;;;;;;6.53;2.75;;;11.00;99.90;;;;;;4999766;28;20114;-87
2024/04/01 03:15:22;;;;;;;5.03;2.70;;;11.00;99.90;;;;;;4993075;28;20037;-89
2024/04/01 03:17:48;;;;;;;4.00;2.22;;;11.00;99.90;;;;;;4997483;28;20034;-87
2024/04/01 03:20:22;;;;;;;4.60;2.70;;;11.00;99.90;;;;;;5000867;28;20044;-87
2024/04/01 03:23:01;;;;;;;4.07;2.70;;;11.00;99.90;;;;;;5003790;28;20440;-87
2024/04/01 03:25:29;;;;;;;2.95;2.50;;;11.00;99.90;;;;;;4989846;28;20092;-87
2024/04/01 03:27:58;;;;;;;3.80;2.65;;;11.00;99.90;;;;;;5010624;28;20038;-88
2024/04/01 03:30:28;;;;;;;5.65;2.33;;;10.90;99.90;;;;;;4984119;28;20051;-88
2024/04/01 03:33:05;;;;;;;2.83;2.17;;;10.90;99.90;;;;;;4984827;28;20040;-89
2024/04/01 03:35:36;;;;;;;4.38;2.38;;;10.90;99.90;;;;;;4986337;28;20034;-88
2024/04/01 03:38:19;;;;;;;4.30;2.50;;;10.80;99.90;;;;;;5002759;28;20037;-89
2024/04/01 03:40:50;;;;;;;5.15;2.80;;;10.80;99.90;;;;;;5018839;28;20051;-87
2024/04/01 03:43:18;;;;;;;4.70;2.70;;;10.80;99.90;;;;;;5020889;28;20018;-88
2024/04/01 03:45:58;;;;;;;4.38;2.75;;;10.80;99.90;;;;;;5018697;28;20033;-88
2024/04/01 03:48:34;;;;;;;4.05;2.90;;;10.70;99.90;;;;;;5005857;28;20083;-88
2024/04/01 03:51:06;;;;;;;4.28;2.88;;;10.70;99.90;;;;;;5001630;28;20048;-88
2024/04/01 03:53:32;;;;;;;4.97;2.35;;;10.70;99.90;;;;;;5000281;28;20030;-86
2024/04/01 03:55:57;;;;;;;4.30;2.63;;;10.70;99.90;;;;;;5016671;28;20404;-86
2024/04/01 03:58:23;;;;;;;3.15;2.25;;;10.70;99.90;;;;;;4998858;28;20169;-87
2024/04/01 04:00:50;;;;;;;4.00;2.72;;;10.60;99.90;;;;;;5015868;28;20025;-87
2024/04/01 04:03:15;;;;;;;3.90;2.88;;;10.60;99.90;;;;;;4999099;28;20473;-85
2024/04/01 04:05:42;;;;;;;4.50;2.55;;;10.60;99.90;;;;;;4983623;28;20034;-87
2024/04/01 04:08:08;;;;;;;3.95;2.70;;;10.60;99.90;;;;;;5000373;28;20053;-85
2024/04/01 04:10:34;;;;;;;4.07;2.67;;;10.50;99.90;;;;;;4998897;28;20223;-87
2024/04/01 04:13:00;;;;;;;3.42;2.40;;;10.50;99.90;;;;;;5007259;28;20044;-87
2024/04/01 04:15:26;;;;;;;4.57;2.42;;;10.50;99.90;;;;;;5023139;28;20026;-87
2024/04/01 04:17:51;;;;;;;4.18;2.80;;;10.50;99.90;;;;;;5007222;28;20010;-86
2024/04/01 04:20:17;;;;;;;2.95;2.33;;;10.50;99.90;;;;;;5012223;28;20453;-87
2024/04/01 04:22:44;;;;;;;4.30;2.60;;;10.40;99.90;;;;;;4982906;28;20058;-88
2024/04/01 04:25:10;;;;;;;4.80;2.70;;;10.40;99.90;;;;;;4999283;28;20412;-88
2024/04/01 04:27:36;;;;;;;3.55;2.65;;;10.40;99.90;;;;;;4982481;28;20197;-86
2024/04/01 04:30:02;;;;;;;4.53;2.63;;;10.40;99.90;;;;;;4983066;28;20026;-86
2024/04/01 04:32:27;;;;;;;4.10;2.70;;;10.40;99.90;;;;;;4998410;28;20026;-86
2024/04/01 04:34:53;;;;;;;3.97;2.53;;;10.40;99.90;;;;;;4982868;28;20021;-86
2024/04/01 04:37:19;;;;;;;4.50;2.60;;;10.40;99.90;;;;;;4982296;28;20474;-86
2024/04/01 04:39:44;;;;;;;3.13;2.38;;;10.40;99.90;;;;;;4998861;28;20022;-87
2024/04/01 04:42:10;;;;;;;4.38;2.53;;;10.40;99.90;;;;;;4998918;28;20379;-87
2024/04/01 04:44:36;;;;;;;4.03;2.60;;;10.30;99.90;;;;;;4982766;28;20029;-87
2024/04/01 04:47:01;;;;;;;3.63;2.28;;;10.30;99.90;;;;;;5005117;28;20108;-86
2024/04/01 04:49:29;;;;;;;4.43;2.50;;;10.40;99.90;;;;;;5025921;28;20029;-87
2024/04/01 04:51:55;;;;;;;3.25;2.50;;;10.40;99.90;;;;;;5011047;28;20455;-87
2024/04/01 04:54:20;;;;;;;3.55;2.55;;;10.40;99.90;;;;;;5026130;28;20022;-88
2024/04/01 04:56:46;;;;;;;3.28;2.67;;;10.40;99.90;;;;;;4991080;28;20097;-87
2024/04/01 04:59:12;;;;;;;2.95;2.33;;;10.40;99.90;;;;;;5022119;28;20030;-87
2024/04/01 05:01:37;;;;;;;3.63;2.67;;;10.40;99.90;;;;;;4984255;28;20032;-87
2024/04/01 05:04:04;;;;;;;3.17;2.33;;;10.40;99.90;;;;;;4998782;28;20370;-87
2024/04/01 05:06:32;;;;;;;3.38;2.45;;;10.40;99.90;;;;;;4981874;28;20072;-86
2024/04/01 05:09:03;;;;;;;3.30;2.60;;;10.40;99.90;;;;;;4998996;28;20053;-87
2024/04/01 05:11:28;;;;;;;2.97;2.35;;;10.40;99.90;;;;;;4998074;28;20025;-86
2024/04/01 05:13:54;;;;;;;3.38;2.35;;;10.40;99.90;;;;;;4997986;28;20032;-87
2024/04/01 05:16:23;;;;;;;3.88;2.10;;;10.40;99.90;;;;;;4997854;28;20044;-86
2024/04/01 05:18:48;;;;;;;2.88;2.35;;;10.40;99.90;;;;;;4997685;28;20021;-87
2024/04/01 05:21:14;;;;;;;3.95;2.58;;;10.40;99.90;;;;;;5014820;28;20339;-87
2024/04/01 05:23:42;;;;;;;4.50;2.30;;;10.40;99.90;;;;;;5014782;28;20108;-88
2024/04/01 05:26:08;;;;;;;3.25;2.40;;;10.40;99.90;;;;;;4997082;28;20112;-87
2024/04/01 05:28:34;;;;;;;4.75;2.38;;;10.40;99.90;;;;;;4979495;28;20058;-87
2024/04/01 05:31:00;;;;;;;3.05;1.92;;;10.40;99.90;;;;;;4979871;28;20029;-87
2024/04/01 05:33:31;;;;;;;2.88;2.15;;;10.50;99.90;;;;;;4996650;28;20044;-87
2024/04/01 05:35:57;;;;;;;2.80;2.10;;;10.50;99.90;;;;;;4981145;28;20049;-86
2024/04/01 05:38:23;;;;;;;3.55;2.30;;;10.50;99.90;;;;;;4998677;28;20030;-88
2024/04/01 05:40:48;;;;;;;3.38;2.15;;;10.50;99.90;;;;;;5025115;28;20046;-87
2024/04/01 05:43:14;;;;;;;3.15;2.35;;;10.50;99.90;;;;;;5020087;28;20041;-87
2024/04/01 05:45:40;;;;;;;3.58;2.35;;;10.50;99.90;;;;;;5038662;28;20033;-87
2024/04/01 05:48:06;;;;;;;3.42;2.47;;;10.50;99.90;;;;;;5005530;28;20013;-86
2024/04/01 05:50:32;;;;;;;5.00;2.33;;;10.50;99.90;;;;;;5035201;28;20018;-86
2024/04/01 05:52:58;;;;;;;4.05;2.35;;;10.50;99.90;;;;;;4984128;28;20029;-86
2024/04/01 05:55:23;;;;;;;2.70;1.92;;;10.50;99.90;;;;;;4997175;28;20065;-86
2024/04/01 05:57:49;;;;;;;3.63;2.08;;;10.60;99.90;;;;;;5014441;28;20034;-86
2024/04/01 06:00:15;;;;;;;3.22;2.20;;;10.60;99.90;;;;;;4996515;28;20034;-87
2024/04/01 06:02:41;;;;;;;2.50;1.80;;;10.60;99.90;;;;;;5014224;28;20026;-86
2024/04/01 06:05:07;;;;;;;2.63;2.30;;;10.60;99.90;;;;;;4996859;28;20382;-87
2024/04/01 06:07:33;;;;;;;2.53;2.33;;;10.60;99.90;;;;;;4980259;28;20057;-87
2024/04/01 06:09:59;;;;;;;4.18;2.63;;;10.70;99.90;;;;;;4980779;28;20033;-86
2024/04/01 06:12:31;;;;;;;4.15;2.47;;;10.70;99.90;;;;;;5014204;28;20351;-85
2024/04/01 06:14:57;;;;;;;3.90;2.80;;;10.70;99.90;;;;;;4997183;28;20026;-86
2024/04/01 06:17:22;;;;;;;2.50;2.15;;;10.70;99.90;;;;;;5014336;28;20030;-86
2024/04/01 06:19:48;;;;;;;4.13;2.70;;;10.70;99.90;;;;;;4996614;28;20037;-86
2024/04/01 06:22:14;;;;;;;2.70;2.50;;;10.70;99.90;;;;;;5013686;28;20030;-87
2024/04/01 06:24:40;;;;;;;3.13;2.72;;;10.70;99.90;;;;;;5013930;28;20045;-87
2024/04/01 06:27:06;;;;;;;3.70;2.67;;;10.70;99.90;;;;;;4996162;28;20022;-87
2024/04/01 06:29:35;;;;;;;2.88;2.22;;;10.70;99.90;;;;;;4996407;28;20084;-87
2024/04/01 06:32:01;;;;;;;2.55;2.25;;;10.80;99.90;;;;;;4998687;28;20058;-86
2024/04/01 06:34:27;;;;;;;2.83;2.42;;;10.80;99.90;;;;;;4984309;28;20112;-86
2024/04/01 06:36:52;;;;;;;3.67;2.20;;;10.80;99.90;;;;;;5000473;28;20037;-87
2024/04/01 06:39:18;;;;;;;4.15;2.10;;;10.80;99.90;;;;;;5000815;28;20064;-89
2024/04/01 06:41:44;;;;;;;4.35;1.77;;;10.90;99.90;;;;;;4984444;28;20057;-88
2024/04/01 06:44:10;;;;;;;3.50;1.90;;;10.90;99.90;;;;;;5018100;28;20528;-87
2024/04/01 06:46:36;;;;;;;3.67;2.15;;;11.00;99.90;;;;;;5017840;28;20115;-88
2024/04/01 06:49:02;;;;;;;2.40;1.77;;;11.00;99.90;;;;;;4984741;28;20022;-88
2024/04/01 06:51:27;;;;;;;2.70;1.95;;;11.10;99.90;;;;;;4984964;28;20040;-88
2024/04/01 06:53:53;;;;;;;2.00;1.60;;;11.10;99.90;;;;;;4984048;28;20041;-88
2024/04/01 06:56:19;;;;;;;3.40;1.83;;;11.20;99.90;;;;;;5000524;28;20060;-88
2024/04/01 06:58:45;;;;;;;1.88;1.70;;;11.20;99.90;;;;;;4984300;28;20034;-87
2024/04/01 07:01:11;;;;;;;2.47;1.70;;;11.20;99.90;;;;;;4984348;28;20018;-87
2024/04/01 07:03:36;;;;;;;3.17;1.75;;;11.30;99.90;;;;;;5000218;28;20033;-87
2024/04/01 07:06:02;;;;;;;2.60;1.50;;;11.30;99.90;;;;;;4984390;28;20030;-87
2024/04/01 07:08:28;;;;;;;1.85;1.60;;;11.30;99.90;;;;;;4984332;28;20025;-87
2024/04/01 07:10:53;;;;;;;1.77;1.35;;;11.30;99.90;;;;;;4985124;28;20113;-89
2024/04/01 07:13:21;;;;;;;1.75;1.50;;;11.30;99.90;;;;;;5018441;28;20081;-83
2024/04/01 07:15:47;;;;;;;1.52;1.40;;;11.30;99.90;;;;;;5011056;28;20045;-85
2024/04/01 07:18:13;;;;;;;3.65;1.63;;;11.30;99.90;;;;;;5007921;28;20014;-85
2024/04/01 07:20:38;;;;;;;2.13;1.50;;;11.30;99.90;;;;;;5008101;28;20014;-84
2024/04/01 07:23:04;;;;;;;2.03;1.38;;;11.40;99.90;;;;;;5041168;28;20056;-85
2024/04/01 07:25:30;;;;;;;3.33;1.77;;;11.40;99.90;;;;;;4994796;28;20037;-85
2024/04/01 07:27:55;;;;;;;1.80;1.42;;;11.40;99.90;;;;;;4983945;28;20481;-84
2024/04/01 07:30:21;;;;;;;2.30;1.55;;;11.40;99.90;;;;;;4983357;28;20030;-84
2024/04/01 07:32:47;;;;;;;1.63;1.52;;;11.40;99.90;;;;;;4999347;28;20521;-85
2024/04/01 07:35:12;;;;;;;2.53;1.83;;;11.40;99.90;;;;;;4999431;28;20030;-85
2024/04/01 07:37:40;;;;;;;2.10;1.90;;;11.50;99.90;;;;;;4982900;28;20034;-84
2024/04/01 07:40:06;;;;;;;2.25;1.90;;;11.50;99.90;;;;;;4999470;28;20474;-84
2024/04/01 07:42:32;;;;;;;3.20;1.60;;;11.50;99.90;;;;;;4997987;28;20033;-84
2024/04/01 07:44:58;;;;;;;3.42;1.77;;;11.50;99.90;;;;;;4998957;28;20030;-85
2024/04/01 07:47:23;;;;;;;1.95;1.73;;;11.50;99.90;;;;;;4982971;28;20509;-85
2024/04/01 07:49:49;;;;;;;3.05;1.92;;;11.50;99.90;;;;;;4963246;28;20462;-84
2024/04/01 07:52:15;;;;;;;3.15;1.95;;;11.60;99.90;;;;;;4963254;28;20033;-85
2024/04/01 07:54:40;;;;;;;3.35;1.85;;;11.60;99.90;;;;;;4979219;28;20034;-84
2024/04/01 07:57:07;;;;;;;2.58;1.95;;;11.60;99.90;;;;;;4979378;28;20521;-83
2024/04/01 07:59:34;;;;;;;2.60;2.00;;;11.60;99.90;;;;;;4979153;28;20030;-83
2024/04/01 08:02:00;;;;;;;2.38;1.98;;;11.50;99.90;;;;;;4962689;28;20121;-83
2024/04/01 08:04:27;;;;;;;3.53;2.13;;;11.60;99.90;;;;;;4978731;28;20368;-83
2024/04/01 08:06:53;;;;;;;2.67;2.03;;;11.60;99.90;;;;;;4963191;28;20077;-83
2024/04/01 08:09:19;;;;;;;3.28;2.10;;;11.60;99.90;;;;;;4979154;28;20031;-83
2024/04/01 08:11:49;;;;;;;2.53;2.22;;;11.70;99.90;;;;;;4978577;28;20029;-86
2024/04/01 08:14:18;;;;;;;3.15;2.10;;;11.70;99.90;;;;;;4963040;28;20053;-84
2024/04/01 08:16:45;;;;;;;2.55;2.08;;;11.70;99.90;;;;;;4962596;28;20050;-84
2024/04/01 08:19:11;;;;;;;2.72;2.13;;;11.70;99.90;;;;;;4978747;28;20040;-84
2024/04/01 08:21:37;;;;;;;2.35;2.13;;;11.70;99.90;;;;;;4962605;28;20109;-84
2024/04/01 08:24:05;;;;;;;3.30;2.15;;;11.70;99.90;;;;;;4978612;28;20126;-85
2024/04/01 08:26:31;;;;;;;3.92;2.40;;;11.70;99.90;;;;;;4978921;28;20033;-84
2024/04/01 08:28:56;;;;;;;2.67;2.17;;;11.80;99.90;;;;;;4962924;28;20022;-83
2024/04/01 08:31:23;;;;;;;2.67;2.08;;;11.80;99.90;;;;;;4978783;28;20577;-84
2024/04/01 08:33:48;;;;;;;2.88;2.63;;;11.80;99.90;;;;;;4995291;28;20047;-83
2024/04/01 08:36:14;;;;;;;2.92;2.45;;;11.80;99.90;;;;;;4978670;28;20364;-84
2024/04/01 08:38:40;;;;;;;3.13;2.50;;;11.80;99.90;;;;;;5014708;28;20478;-84
2024/04/01 08:41:12;;;;;;;2.80;2.47;;;11.80;99.90;;;;;;4982090;28;20018;-85
2024/04/01 08:43:48;;;;;;;4.05;3.10;;;11.90;99.90;;;;;;4998403;28;20390;-84
2024/04/01 08:46:14;;;;;;;4.05;2.88;;;11.80;99.90;;;;;;4998584;28;20111;-84
2024/04/01 08:48:48;;;;;;;2.90;2.60;;;11.80;99.90;;;;;;5000519;28;20030;-85
2024/04/01 08:51:20;;;;;;;4.72;3.28;;;11.80;99.90;;;;;;5022345;28;20013;-85
2024/04/01 08:53:58;;;;;;;3.58;3.20;;;11.80;99.90;;;;;;5022691;28;20010;-86
2024/04/01 08:56:25;;;;;;;3.83;3.20;;;11.80;99.90;;;;;;5021858;28;20040;-83
2024/04/01 08:58:52;;;;;;;3.47;3.15;;;11.70;99.90;;;;;;5034391;28;20057;-84
2024/04/01 09:01:19;;;;;;;5.20;3.67;;;11.80;99.90;;;;;;4998668;28;20462;-84
2024/04/01 09:03:47;;;;;;;4.30;3.88;;;11.80;99.90;;;;;;4981696;28;20489;-83
2024/04/01 09:06:17;;;;;;;4.88;3.92;;;11.80;99.90;;;;;;4982027;28;20030;-84
2024/04/01 09:08:45;;;;;;;4.50;4.10;;;11.80;99.90;;;;;;4981761;28;20056;-83
2024/04/01 09:11:11;;;;;;;4.28;3.88;;;11.90;99.90;;;;;;4997302;28;20113;-84
2024/04/01 09:13:37;;;;;;;4.97;4.28;;;11.90;99.90;;;;;;4997504;28;20018;-84
2024/04/01 09:16:07;;;;;;;4.38;3.97;;;11.90;99.90;;;;;;4997166;28;20030;-84
2024/04/01 09:18:37;;;;;;;4.80;4.38;;;12.00;99.90;;;;;;4965793;28;20069;-85
2024/04/01 09:21:04;;;;;;;3.97;3.67;;;12.00;99.90;;;;;;4981514;28;20026;-85
2024/04/01 09:23:32;;;;;;;4.93;4.00;;;12.00;99.90;;;;;;4997364;28;20030;-83
2024/04/01 09:26:03;;;;;;;4.22;3.83;;;12.00;99.90;;;;;;4997348;28;20095;-85
2024/04/01 09:28:30;;;;;;;4.80;3.97;;;12.00;99.90;;;;;;5015196;28;20112;-86
2024/04/01 09:30:56;;;;;;;4.20;3.80;;;12.00;99.90;;;;;;4996856;28;20430;-86
2024/04/01 09:33:24;;;;;;;4.32;3.83;;;12.00;99.90;;;;;;4997151;28;20466;-85
2024/04/01 09:35:50;;;;;;;4.00;3.42;;;12.00;99.90;;;;;;5014396;28;20022;-84
2024/04/01 09:38:16;;;;;;;3.53;3.22;;;11.90;99.90;;;;;;4996798;28;20065;-85
2024/04/01 09:40:51;;;;;;;5.22;3.78;;;11.90;99.90;;;;;;4996688;28;20054;-86
2024/04/01 09:43:28;;;;;;;5.20;3.58;;;11.90;99.90;;;;;;4996689;28;20025;-86
2024/04/01 09:45:54;;;;;;;5.32;3.67;;;11.90;99.90;;;;;;4996200;28;20101;-86
2024/04/01 09:48:25;;;;;;;3.97;3.22;;;12.00;99.90;;;;;;4997125;28;20042;-85
2024/04/01 09:50:54;;;;;;;3.10;2.80;;;12.10;99.90;;;;;;4980998;28;20038;-86
2024/04/01 09:53:21;;;;;;;3.88;3.42;;;12.10;99.90;;;;;;4996748;28;20026;-84
2024/04/01 09:56:15;;;;;;;4.55;3.40;;;12.20;99.90;;;;;;4980837;28;20034;-84
2024/04/01 09:59:18;;;;;;;4.18;3.40;;;12.20;99.90;;;;;;5014216;28;20088;-83
2024/04/01 10:02:26;;;;;;;4.03;3.22;;;12.20;99.90;;;;;;4996484;28;20444;-84
2024/04/01 10:05:13;;;;;;;3.47;3.17;;;12.20;99.90;;;;;;4976091;28;20042;-87
2024/04/01 10:08:00;;;;;;;3.90;3.38;;;12.20;99.90;;;;;;4996312;28;20018;-85
2024/04/01 10:10:53;;;;;;;4.20;3.35;;;12.20;99.90;;;;;;5014428;28;20080;-86
2024/04/01 10:13:37;;;;;;;3.83;3.53;;;12.30;99.90;;;;;;4996645;28;20080;-86
2024/04/01 10:16:21;;;;;;;5.00;3.88;;;12.30;99.90;;;;;;4996754;28;20386;-86
2024/04/01 10:19:07;;;;;;;4.57;4.05;;;12.30;99.90;;;;;;4997381;28;20073;-85
2024/04/01 10:22:08;;;;;;;4.60;3.67;;;12.30;99.90;;;;;;4997876;28;20030;-89
2024/04/01 10:24:34;;;;;;;3.85;3.55;;;12.30;99.90;;;;;;5028163;28;20041;-85
2024/04/01 10:27:29;;;;;;;4.30;3.90;;;12.30;99.90;;;;;;5021176;28;20030;-85
2024/04/01 10:30:09;;;;;;;3.92;3.45;;;12.30;99.90;;;;;;5038262;28;20042;-84
2024/04/01 10:32:56;;;;;;;3.92;3.45;;;12.40;99.90;;;;;;5020905;28;20034;-86
2024/04/01 10:35:37;;;;;;;3.85;3.50;;;12.40;99.90;;;;;;5016320;28;20022;-85
2024/04/01 10:38:26;;;;;;;3.63;3.33;;;12.40;99.90;;;;;;4999655;28;20037;-83
2024/04/01 10:41:03;;;;;;;3.80;3.22;;;12.40;99.90;;;;;;4997986;28;20398;-83
2024/04/01 10:43:57;;;;;;;3.88;3.30;;;12.40;99.90;;;;;;4997533;28;20022;-86
2024/04/01 10:46:52;;;;;;;5.18;3.60;;;12.40;99.90;;;;;;4991794;28;20129;-85
2024/04/01 10:49:52;;;;;;;3.58;3.28;;;12.50;99.90;;;;;;4983125;28;20037;-84
2024/04/01 10:52:24;;;;;;;3.42;3.10;;;12.50;99.90;;;;;;4976512;28;20022;-84
2024/04/01 10:55:01;;;;;;;4.28;3.50;;;12.50;99.90;;;;;;4976443;28;20030;-84
2024/04/01 10:57:36;;;;;;;4.45;3.80;;;12.60;99.90;;;;;;4976133;28;20030;-84
2024/04/01 11:00:13;;;;;;;4.05;3.65;;;12.60;99.90;;;;;;4976233;28;20018;-86
2024/04/01 11:03:17;;;;;;;4.68;3.75;;;12.70;99.90;;;;;;4994963;28;20030;-85
2024/04/01 11:06:10;;;;;;;4.20;3.75;;;12.70;99.90;;;;;;4971890;28;20041;-84
2024/04/01 11:09:06;;;;;;;4.40;3.50;;;12.70;99.90;;;;;;4975930;28;20100;-85
2024/04/01 11:11:35;;;;;;;4.28;3.42;;;12.70;99.90;;;;;;4977658;28;20027;-84
2024/04/01 11:14:04;;;;;;;4.63;3.75;;;12.70;99.90;;;;;;4976823;28;20062;-85
2024/04/01 11:16:32;;;;;;;5.10;4.13;;;12.60;99.90;;;;;;4961298;28;20035;-84
2024/04/01 11:19:20;;;;;;;5.20;4.20;;;12.60;99.90;;;;;;4978963;28;20079;-84
2024/04/01 11:21:57;;;;;;;4.63;4.15;;;12.60;99.90;;;;;;4997060;28;20038;-85
2024/04/01 11:24:35;;;;;;;6.40;5.00;;;12.60;99.90;;;;;;4997032;28;20022;-84
2024/04/01 11:27:28;;;;;;;6.43;4.70;;;12.60;99.90;;;;;;4996812;28;20494;-85
2024/04/01 11:30:09;;;;;;;5.32;4.50;;;12.50;99.90;;;;;;4980332;28;20382;-86
2024/04/01 11:32:38;;;;;;;7.15;4.80;;;12.50;99.90;;;;;;4979308;28;20019;-85
2024/04/01 11:35:03;;;;;;;4.72;4.32;;;12.50;99.90;;;;;;4979413;28;20041;-85
2024/04/01 11:37:40;;;;;;;5.68;3.72;;;12.40;99.90;;;;;;4979498;28;20031;-85
2024/04/01 11:40:09;;;;;;;4.55;4.10;;;12.40;99.90;;;;;;4979797;28;20080;-83
2024/04/01 11:42:40;;;;;;;6.97;4.47;;;12.50;99.90;;;;;;4979635;28;20430;-85
2024/04/01 11:45:10;;;;;;;5.82;4.22;;;12.50;99.90;;;;;;4996730;28;20026;-85
2024/04/01 11:47:41;;;;;;;6.00;4.28;;;12.50;99.90;;;;;;4980939;28;20038;-84
2024/04/01 11:50:16;;;;;;;;;;;12.40;99.90;;;;;;4979828;28;20065;-84
2024/04/01 11:52:42;;;;;;;4.40;3.13;;;12.40;99.90;;;;;;4979578;28;19901;-84
2024/04/01 11:55:12;;;;;;;5.60;3.25;;;12.40;99.90;;;;;;4963564;28;20092;-85
2024/04/01 11:57:38;;;;;;;5.78;3.30;;;12.50;99.90;;;;;;4981143;28;20104;-85
2024/04/01 12:00:09;;;;;;;6.93;3.20;;;12.60;99.90;;;;;;4994742;28;20026;-84
2024/04/01 12:02:35;;;;;;;6.85;3.42;;;12.60;99.90;;;;;;5020672;28;20006;-85
2024/04/01 12:05:05;;;;;;;4.95;2.90;;;12.70;99.90;;;;;;5020332;28;20038;-84
2024/04/01 12:07:35;;;;;;;6.70;3.70;;;12.70;99.90;;;;;;4985577;28;20077;-84
2024/04/01 12:10:04;;;;;;;5.18;2.78;;;12.70;99.90;;;;;;5006001;28;20682;-85
2024/04/01 12:12:33;;;;;;;5.13;2.55;;;12.70;99.90;;;;;;4979314;28;20030;-84
2024/04/01 12:15:04;;;;;;;5.47;2.58;;;12.80;99.90;;;;;;4978868;28;20046;-87
2024/04/01 12:17:35;;;;;;;6.45;2.38;;;12.90;99.90;;;;;;4979166;28;20077;-85
2024/04/01 12:20:03;;;;;;;4.90;2.53;;;12.90;99.90;;;;;;4979086;28;20062;-84
2024/04/01 12:22:29;;;;;;;6.45;2.25;;;13.00;99.90;;;;;;4979296;28;20121;-84
2024/04/01 12:24:57;;;;;;;4.85;2.28;;;13.10;99.90;;;;;;4995647;28;20113;-84
2024/04/01 12:27:23;;;;;;;7.13;2.20;;;13.20;99.90;;;;;;4978500;28;20493;-86
2024/04/01 12:29:51;;;;;;;5.15;1.95;;;13.20;99.90;;;;;;4962499;28;20510;-85
2024/04/01 12:32:17;;;;;;;5.72;1.83;;;13.30;99.90;;;;;;4995901;28;20493;-84
2024/04/01 12:34:44;;;;;;;4.05;1.90;;;13.30;99.90;;;;;;4978414;28;20054;-85
2024/04/01 12:37:09;;;;;;;3.92;1.63;;;13.40;99.90;;;;;;4994773;28;20114;-85
2024/04/01 12:39:48;;;;;;;2.58;1.60;;;13.50;99.90;;;;;;4978390;28;20439;-85
2024/04/01 12:42:17;;;;;;;4.03;1.90;;;13.60;99.90;;;;;;4978836;28;20026;-85
2024/04/01 12:44:44;;;;;;;3.42;1.70;;;13.60;99.90;;;;;;4996047;28;20030;-85
2024/04/01 12:47:13;;;;;;;4.57;1.60;;;13.60;99.90;;;;;;4962353;28;20075;-84
2024/04/01 12:49:40;;;;;;;4.25;1.50;;;13.60;99.90;;;;;;4978496;28;20367;-85
2024/04/01 12:52:07;;;;;;;2.80;1.77;;;13.60;99.90;;;;;;4978120;28;20032;-83
2024/04/01 12:54:50;;;;;;;4.05;1.92;;;13.60;99.90;;;;;;4978167;28;20030;-84
2024/04/01 12:57:41;;;;;;;5.88;1.92;;;13.60;99.90;;;;;;4995646;28;20351;-84
2024/04/01 13:00:07;;;;;;;3.33;1.70;;;13.60;99.90;;;;;;4994374;28;20022;-85
2024/04/01 13:03:11;;;;;;;4.03;1.73;;;13.60;99.90;;;;;;4995686;28;20500;-86
2024/04/01 13:05:36;;;;;;;2.70;1.42;;;13.50;99.90;;;;;;4976781;28;20038;-85